createdAt,value
2022-10-12T00:02:26.912Z,6.20
2022-10-12T00:04:53.930Z,6.20
2022-10-12T00:07:20.910Z,6.20
2022-10-12T00:09:48.042Z,6.10
2022-10-12T00:12:15.102Z,6.10
2022-10-12T00:14:42.164Z,6.10
2022-10-12T00:17:09.296Z,6.10
2022-10-12T00:19:36.411Z,6.10
2022-10-12T00:22:03.437Z,6.00
2022-10-12T00:24:30.598Z,6.00
2022-10-12T00:26:58.079Z,6.00
2022-10-12T00:29:25.485Z,5.90
2022-10-12T00:31:52.490Z,5.90
2022-10-12T00:34:19.584Z,5.90
2022-10-12T00:36:46.729Z,5.90
2022-10-12T00:39:13.827Z,5.90
2022-10-12T00:41:43.969Z,5.80
2022-10-12T00:44:45.254Z,5.70
2022-10-12T00:47:24.222Z,5.60
2022-10-12T00:49:57.314Z,5.60
2022-10-12T00:52:33.032Z,5.60
2022-10-12T00:55:02.016Z,5.60
2022-10-12T00:57:30.043Z,5.50
2022-10-12T01:00:03.115Z,5.50
2022-10-12T01:02:33.240Z,5.50
2022-10-12T01:05:01.572Z,5.50
2022-10-12T01:07:28.743Z,5.50
2022-10-12T01:09:55.828Z,5.60
2022-10-12T01:12:23.698Z,5.60
2022-10-12T01:14:51.102Z,5.60
2022-10-12T01:17:56.686Z,5.60
2022-10-12T01:20:44.868Z,5.50
2022-10-12T01:23:18.303Z,5.40
2022-10-12T01:26:10.149Z,5.40
2022-10-12T01:28:46.080Z,5.40
2022-10-12T01:31:36.449Z,5.40
2022-10-12T01:34:34.920Z,5.40
2022-10-12T01:37:16.966Z,5.40
2022-10-12T01:39:56.342Z,5.30
2022-10-12T01:42:36.006Z,5.30
2022-10-12T01:45:19.300Z,5.30
2022-10-12T01:47:52.736Z,5.20
2022-10-12T01:50:24.975Z,5.20
2022-10-12T01:53:19.756Z,5.20
2022-10-12T01:56:12.131Z,5.20
2022-10-12T01:58:59.222Z,5.10
2022-10-12T02:01:56.271Z,5.10
2022-10-12T02:05:14.796Z,5.10
2022-10-12T02:08:16.793Z,5.10
2022-10-12T02:10:57.964Z,5.00
2022-10-12T02:13:30.371Z,5.00
2022-10-12T02:16:01.486Z,4.90
2022-10-12T02:18:29.691Z,4.80
2022-10-12T02:21:00.972Z,4.80
2022-10-12T02:23:29.112Z,4.80
2022-10-12T02:25:58.501Z,4.80
2022-10-12T02:28:29.695Z,4.80
2022-10-12T02:31:08.694Z,4.80
2022-10-12T02:33:42.386Z,4.80
2022-10-12T02:36:17.223Z,4.80
2022-10-12T02:38:53.733Z,4.80
2022-10-12T02:41:30.013Z,4.80
2022-10-12T02:44:04.477Z,4.80
2022-10-12T02:46:33.650Z,4.80
2022-10-12T02:49:02.608Z,4.80
2022-10-12T02:51:31.304Z,4.80
2022-10-12T02:53:58.803Z,4.70
2022-10-12T02:56:26.031Z,4.60
2022-10-12T02:58:53.132Z,4.60
2022-10-12T03:01:20.190Z,4.70
2022-10-12T03:03:47.316Z,4.60
2022-10-12T03:06:14.767Z,4.60
2022-10-12T03:08:41.834Z,4.60
2022-10-12T03:11:12.612Z,4.60
2022-10-12T03:13:39.775Z,4.60
2022-10-12T03:16:10.088Z,4.50
2022-10-12T03:18:38.304Z,4.40
2022-10-12T03:21:06.133Z,4.50
2022-10-12T03:23:33.468Z,4.50
2022-10-12T03:26:00.476Z,4.50
2022-10-12T03:28:27.763Z,4.50
2022-10-12T03:30:55.357Z,4.50
2022-10-12T03:33:22.688Z,4.50
2022-10-12T03:35:50.270Z,4.40
2022-10-12T03:38:18.683Z,4.40
2022-10-12T03:40:46.967Z,4.40
2022-10-12T03:43:14.580Z,4.40
2022-10-12T03:45:41.635Z,4.40
2022-10-12T03:48:09.578Z,4.40
2022-10-12T03:50:36.957Z,4.40
2022-10-12T03:53:05.771Z,4.30
2022-10-12T03:55:33.738Z,4.30
2022-10-12T03:58:01.151Z,4.30
2022-10-12T04:00:28.509Z,4.30
2022-10-12T04:02:55.819Z,4.40
2022-10-12T04:05:23.367Z,4.40
2022-10-12T04:07:50.941Z,4.30
2022-10-12T04:10:18.128Z,4.30
2022-10-12T04:12:46.020Z,4.30
2022-10-12T04:15:14.555Z,4.30
2022-10-12T04:17:41.909Z,4.30
2022-10-12T04:20:12.031Z,4.30
2022-10-12T04:22:39.901Z,4.40
2022-10-12T04:25:07.749Z,4.40
2022-10-12T04:27:34.996Z,4.40
2022-10-12T04:30:02.245Z,4.50
2022-10-12T04:32:29.218Z,4.50
2022-10-12T04:34:56.249Z,4.40
2022-10-12T04:37:23.264Z,4.40
2022-10-12T04:39:50.369Z,4.40
2022-10-12T04:42:17.447Z,4.40
2022-10-12T04:44:44.509Z,4.40
2022-10-12T04:47:11.587Z,4.30
2022-10-12T04:49:38.653Z,4.30
2022-10-12T04:52:05.733Z,4.30
2022-10-12T04:54:32.944Z,4.30
2022-10-12T04:56:59.965Z,4.30
2022-10-12T04:59:27.561Z,4.30
2022-10-12T05:01:54.663Z,4.20
2022-10-12T05:04:21.981Z,4.10
2022-10-12T05:06:49.183Z,4.10
2022-10-12T05:09:17.248Z,4.10
2022-10-12T05:11:44.689Z,4.10
2022-10-12T05:14:11.832Z,4.10
2022-10-12T05:16:38.852Z,4.10
2022-10-12T05:19:05.904Z,4.10
2022-10-12T05:21:34.266Z,4.10
2022-10-12T05:24:01.415Z,4.10
2022-10-12T05:26:28.488Z,4.10
2022-10-12T05:28:55.577Z,4.10
2022-10-12T05:31:22.621Z,4.10
2022-10-12T05:33:50.036Z,4.10
2022-10-12T05:36:17.044Z,4.10
2022-10-12T05:38:44.061Z,4.10
2022-10-12T05:41:11.103Z,4.20
2022-10-12T05:43:38.122Z,4.20
2022-10-12T05:46:05.312Z,4.00
2022-10-12T05:48:33.340Z,4.10
2022-10-12T05:51:00.594Z,4.20
2022-10-12T05:53:27.766Z,4.20
2022-10-12T05:56:01.616Z,4.30
2022-10-12T05:58:30.642Z,4.20
2022-10-12T06:01:14.349Z,4.30
2022-10-12T06:03:41.433Z,4.40
2022-10-12T06:06:08.876Z,4.50
2022-10-12T06:08:36.047Z,4.60
2022-10-12T06:11:03.777Z,4.70
2022-10-12T06:13:30.908Z,4.70
2022-10-12T06:15:58.196Z,4.80
2022-10-12T06:18:25.240Z,5.00
2022-10-12T06:21:20.951Z,5.00
2022-10-12T06:23:41.764Z,5.10
2022-10-12T06:26:08.816Z,5.20
2022-10-12T06:28:35.863Z,5.30
2022-10-12T06:31:02.919Z,5.40
2022-10-12T06:33:30.166Z,5.50
2022-10-12T06:35:57.549Z,5.70
2022-10-12T06:38:24.701Z,5.80
2022-10-12T06:40:53.562Z,5.90
2022-10-12T06:43:22.828Z,6.10
2022-10-12T06:45:52.465Z,6.20
2022-10-12T06:48:19.510Z,6.30
2022-10-12T06:50:48.015Z,6.40
2022-10-12T06:53:15.041Z,6.60
2022-10-12T06:55:42.155Z,6.60
2022-10-12T06:58:09.233Z,6.80
2022-10-12T07:00:36.813Z,6.90
2022-10-12T07:03:04.305Z,7.20
2022-10-12T07:05:31.697Z,7.30
2022-10-12T07:07:59.959Z,7.50
2022-10-12T07:10:28.223Z,7.60
2022-10-12T07:12:55.239Z,7.70
2022-10-12T07:15:22.273Z,8.00
2022-10-12T07:17:49.515Z,8.20
2022-10-12T07:20:16.611Z,8.20
2022-10-12T07:22:44.645Z,8.40
2022-10-12T07:25:11.707Z,8.50
2022-10-12T07:27:39.207Z,8.60
2022-10-12T07:30:07.422Z,8.70
2022-10-12T07:32:34.415Z,8.80
2022-10-12T07:35:01.425Z,8.70
2022-10-12T07:37:28.551Z,8.90
2022-10-12T07:39:57.598Z,8.90
2022-10-12T07:42:25.452Z,9.00
2022-10-12T07:44:52.581Z,9.10
2022-10-12T07:47:19.764Z,9.40
2022-10-12T07:49:46.795Z,9.30
2022-10-12T07:52:13.950Z,9.40
2022-10-12T07:54:41.010Z,9.40
2022-10-12T07:57:08.806Z,9.50
2022-10-12T07:59:35.878Z,9.40
2022-10-12T08:02:03.079Z,9.60
2022-10-12T08:04:30.201Z,9.70
2022-10-12T08:06:58.486Z,10.00
2022-10-12T08:09:25.520Z,10.30
2022-10-12T08:11:52.523Z,10.40
2022-10-12T08:14:19.807Z,10.30
2022-10-12T08:16:46.923Z,10.20
2022-10-12T08:19:14.777Z,10.40
2022-10-12T08:21:42.748Z,10.30
2022-10-12T08:24:11.653Z,10.40
2022-10-12T08:26:39.356Z,10.40
2022-10-12T08:29:08.222Z,10.00
2022-10-12T08:31:35.801Z,10.10
2022-10-12T08:34:03.872Z,10.50
2022-10-12T08:36:31.013Z,10.70
2022-10-12T08:38:58.566Z,10.50
2022-10-12T08:42:11.822Z,10.60
2022-10-12T08:44:59.716Z,10.90
2022-10-12T08:47:44.397Z,11.10
2022-10-12T08:50:46.891Z,11.40
2022-10-12T08:53:32.695Z,11.30
2022-10-12T08:56:01.395Z,11.30
2022-10-12T08:58:38.857Z,11.40
2022-10-12T09:01:38.576Z,11.60
2022-10-12T09:04:17.646Z,11.60
2022-10-12T09:06:58.192Z,11.90
2022-10-12T09:10:19.515Z,12.10
2022-10-12T09:13:02.456Z,12.20
2022-10-12T09:15:36.563Z,12.30
2022-10-12T09:18:15.716Z,12.00
2022-10-12T09:20:52.633Z,12.00
2022-10-12T09:23:30.707Z,12.20
2022-10-12T09:26:14.640Z,12.50
2022-10-12T09:28:57.981Z,12.50
2022-10-12T09:32:21.645Z,12.70
2022-10-12T09:34:49.503Z,12.60
2022-10-12T09:37:23.794Z,12.80
2022-10-12T09:39:51.424Z,13.10
2022-10-12T09:42:18.569Z,13.00
2022-10-12T09:44:50.572Z,13.10
2022-10-12T09:47:27.625Z,13.10
2022-10-12T09:50:04.227Z,13.20
2022-10-12T09:52:37.352Z,13.20
2022-10-12T09:55:14.984Z,13.50
2022-10-12T09:57:51.814Z,13.50
2022-10-12T10:00:34.516Z,13.50
2022-10-12T10:03:02.932Z,13.40
2022-10-12T10:05:36.367Z,13.40
2022-10-12T10:08:23.656Z,13.60
2022-10-12T10:10:53.599Z,13.90
2022-10-12T10:13:24.299Z,14.00
2022-10-12T10:16:03.684Z,14.00
2022-10-12T10:18:44.348Z,13.90
2022-10-12T10:21:15.036Z,13.90
2022-10-12T10:23:52.406Z,13.80
2022-10-12T10:26:21.831Z,14.00
2022-10-12T10:29:11.875Z,14.00
2022-10-12T10:31:39.463Z,14.20
2022-10-12T10:34:17.272Z,14.40
2022-10-12T10:36:53.865Z,14.50
2022-10-12T10:39:46.857Z,14.70
2022-10-12T10:42:21.351Z,14.80
2022-10-12T10:44:57.816Z,14.90
2022-10-12T10:47:24.907Z,14.90
2022-10-12T10:49:57.539Z,14.90
2022-10-12T10:52:35.851Z,15.10
2022-10-12T10:55:15.213Z,15.20
2022-10-12T10:57:57.031Z,15.40
2022-10-12T11:00:38.537Z,15.40
2022-10-12T11:03:23.790Z,15.70
2022-10-12T11:05:58.395Z,16.20
2022-10-12T11:08:30.118Z,16.60
2022-10-12T11:11:04.359Z,17.80
2022-10-12T11:14:00.683Z,19.50
2022-10-12T11:17:04.688Z,20.80
2022-10-12T11:19:43.013Z,21.90
2022-10-12T11:22:28.177Z,22.90
2022-10-12T11:25:18.623Z,23.20
2022-10-12T11:27:48.965Z,24.60
2022-10-12T11:30:25.206Z,25.40
2022-10-12T11:33:01.552Z,26.20
2022-10-12T11:35:40.455Z,27.10
2022-10-12T11:38:21.424Z,27.90
2022-10-12T11:41:13.947Z,27.90
2022-10-12T11:44:00.423Z,27.50
2022-10-12T11:46:45.010Z,28.40
2022-10-12T11:49:33.032Z,29.00
2022-10-12T11:52:08.774Z,29.20
2022-10-12T11:54:55.786Z,29.40
2022-10-12T11:57:47.637Z,28.80
2022-10-12T12:00:28.160Z,29.50
2022-10-12T12:03:21.738Z,30.60
2022-10-12T12:05:48.897Z,29.80
2022-10-12T12:08:42.931Z,30.40
2022-10-12T12:11:35.251Z,30.70
2022-10-12T12:14:21.115Z,31.20
2022-10-12T12:16:49.671Z,30.40
2022-10-12T12:19:44.103Z,31.50
2022-10-12T12:22:29.370Z,32.40
2022-10-12T12:25:10.576Z,30.40
2022-10-12T12:27:43.448Z,29.10
2022-10-12T12:30:19.786Z,29.80
2022-10-12T12:33:20.456Z,30.40
2022-10-12T12:36:08.542Z,30.90
2022-10-12T12:38:45.364Z,31.80
2022-10-12T12:41:14.546Z,32.30
2022-10-12T12:44:01.434Z,31.70
2022-10-12T12:46:53.328Z,31.30
2022-10-12T12:49:37.476Z,30.10
2022-10-12T12:52:30.636Z,31.10
2022-10-12T12:55:16.583Z,31.90
2022-10-12T12:58:26.343Z,32.70
2022-10-12T13:01:21.384Z,33.50
2022-10-12T13:04:00.270Z,32.90
2022-10-12T13:06:54.060Z,33.20
2022-10-12T13:09:35.640Z,32.60
2022-10-12T13:12:30.335Z,31.10
2022-10-12T13:15:40.468Z,32.20
2022-10-12T13:18:46.015Z,32.00
2022-10-12T13:21:23.207Z,30.20
2022-10-12T13:24:02.091Z,31.90
2022-10-12T13:26:31.430Z,32.60
2022-10-12T13:29:01.928Z,32.90
2022-10-12T13:31:43.652Z,33.30
2022-10-12T13:34:39.510Z,33.00
2022-10-12T13:37:14.434Z,34.20
2022-10-12T13:39:44.918Z,34.10
2022-10-12T13:42:28.632Z,33.90
2022-10-12T13:44:55.673Z,32.60
2022-10-12T13:47:30.861Z,32.80
2022-10-12T13:49:58.375Z,32.50
2022-10-12T13:52:34.332Z,32.20
2022-10-12T13:55:15.082Z,32.60
2022-10-12T13:57:50.373Z,32.40
2022-10-12T14:00:25.091Z,32.70
2022-10-12T14:03:02.341Z,32.80
2022-10-12T14:05:32.663Z,32.90
2022-10-12T14:08:12.179Z,32.80
2022-10-12T14:10:41.394Z,33.30
2022-10-12T14:13:15.918Z,33.30
2022-10-12T14:15:43.304Z,33.40
2022-10-12T14:18:37.672Z,33.20
2022-10-12T14:21:17.887Z,32.70
2022-10-12T14:23:49.186Z,32.20
2022-10-12T14:26:55.115Z,32.10
2022-10-12T14:29:44.723Z,32.20
2022-10-12T14:32:11.723Z,31.50
2022-10-12T14:34:46.422Z,31.10
2022-10-12T14:37:16.556Z,32.00
2022-10-12T14:39:47.187Z,32.10
2022-10-12T14:42:26.769Z,31.50
2022-10-12T14:44:54.653Z,31.30
2022-10-12T14:47:42.901Z,30.90
2022-10-12T14:50:17.269Z,31.10
2022-10-12T14:52:48.295Z,30.60
2022-10-12T14:55:25.525Z,30.80
2022-10-12T14:57:52.909Z,30.40
2022-10-12T15:00:25.536Z,30.40
2022-10-12T15:02:53.123Z,30.30
2022-10-12T15:05:23.820Z,29.50
2022-10-12T15:07:51.673Z,27.70
2022-10-12T15:10:22.636Z,25.90
2022-10-12T15:12:50.773Z,24.70
2022-10-12T15:15:44.271Z,23.80
2022-10-12T15:18:11.665Z,22.70
2022-10-12T15:20:39.385Z,21.80
2022-10-12T15:23:06.862Z,21.10
2022-10-12T15:25:49.585Z,20.70
2022-10-12T15:28:16.984Z,20.20
2022-10-12T15:31:11.718Z,19.80
2022-10-12T15:33:31.959Z,19.50
2022-10-12T15:35:59.003Z,19.30
2022-10-12T15:38:26.186Z,19.10
2022-10-12T15:40:53.504Z,18.80
2022-10-12T15:43:20.731Z,18.60
2022-10-12T15:45:47.994Z,18.40
2022-10-12T15:48:15.103Z,18.20
2022-10-12T15:50:48.297Z,18.00
2022-10-12T15:53:24.019Z,17.90
2022-10-12T15:55:55.392Z,17.80
2022-10-12T15:58:22.870Z,17.50
2022-10-12T16:00:50.058Z,17.10
2022-10-12T16:03:25.729Z,16.90
2022-10-12T16:05:53.817Z,16.60
2022-10-12T16:08:20.932Z,16.40
2022-10-12T16:10:48.414Z,16.20
2022-10-12T16:13:16.426Z,16.00
2022-10-12T16:15:44.140Z,15.90
2022-10-12T16:18:15.400Z,15.70
2022-10-12T16:20:46.642Z,15.50
2022-10-12T16:23:32.092Z,15.40
2022-10-12T16:26:02.549Z,15.30
2022-10-12T16:28:29.909Z,15.10
2022-10-12T16:30:57.179Z,15.10
2022-10-12T16:33:24.314Z,15.00
2022-10-12T16:35:51.725Z,14.80
2022-10-12T16:38:22.273Z,14.60
2022-10-12T16:40:50.740Z,14.60
2022-10-12T16:43:19.397Z,14.50
2022-10-12T16:45:55.182Z,14.40
2022-10-12T16:48:22.275Z,14.30
2022-10-12T16:50:49.367Z,14.30
2022-10-12T16:53:16.587Z,14.10
2022-10-12T16:55:43.833Z,14.00
2022-10-12T16:58:10.903Z,13.80
2022-10-12T17:00:40.187Z,13.70
2022-10-12T17:03:08.808Z,13.70
2022-10-12T17:05:36.052Z,13.50
2022-10-12T17:08:03.291Z,13.40
2022-10-12T17:10:30.951Z,13.40
2022-10-12T17:12:58.386Z,13.30
2022-10-12T17:15:25.868Z,13.30
2022-10-12T17:17:54.294Z,13.10
2022-10-12T17:20:21.742Z,13.10
2022-10-12T17:22:48.920Z,13.00
2022-10-12T17:25:16.242Z,12.80
2022-10-12T17:27:43.351Z,12.80
2022-10-12T17:30:11.373Z,12.60
2022-10-12T17:32:38.637Z,12.60
2022-10-12T17:35:06.728Z,12.40
2022-10-12T17:37:34.005Z,12.30
2022-10-12T17:40:04.471Z,12.30
2022-10-12T17:42:32.005Z,12.20
2022-10-12T17:44:59.229Z,12.10
2022-10-12T17:47:26.461Z,12.10
2022-10-12T17:49:53.557Z,12.10
2022-10-12T17:52:20.924Z,12.00
2022-10-12T17:54:48.026Z,11.90
2022-10-12T17:57:15.259Z,11.80
2022-10-12T17:59:42.930Z,11.80
2022-10-12T18:02:10.842Z,11.70
2022-10-12T18:04:38.482Z,11.50
2022-10-12T18:07:05.525Z,11.50
2022-10-12T18:09:32.686Z,11.50
2022-10-12T18:11:59.935Z,11.40
2022-10-12T18:14:27.172Z,11.40
2022-10-12T18:16:54.408Z,11.40
2022-10-12T18:19:21.639Z,11.30
2022-10-12T18:21:48.883Z,11.30
2022-10-12T18:24:17.448Z,11.20
2022-10-12T18:26:47.442Z,11.10
2022-10-12T18:29:17.965Z,11.10
2022-10-12T18:31:45.095Z,11.10
2022-10-12T18:34:12.351Z,11.10
2022-10-12T18:36:41.382Z,11.10
2022-10-12T18:39:08.624Z,11.10
2022-10-12T18:41:35.812Z,11.00
2022-10-12T18:44:03.693Z,10.90
2022-10-12T18:46:33.442Z,10.70
2022-10-12T18:49:05.146Z,10.60
2022-10-12T18:51:37.416Z,10.40
2022-10-12T18:54:05.568Z,10.40
2022-10-12T18:56:35.500Z,10.40
2022-10-12T18:59:03.708Z,10.40
2022-10-12T19:01:31.551Z,10.40
2022-10-12T19:04:00.677Z,10.30
2022-10-12T19:06:31.731Z,10.20
2022-10-12T19:08:59.882Z,10.00
2022-10-12T19:11:29.817Z,9.90
2022-10-12T19:14:10.627Z,9.90
2022-10-12T19:16:37.731Z,10.00
2022-10-12T19:19:09.157Z,10.00
2022-10-12T19:21:36.239Z,10.00
2022-10-12T19:24:05.536Z,10.00
2022-10-12T19:26:33.838Z,9.80
2022-10-12T19:29:01.602Z,9.80
2022-10-12T19:31:42.695Z,9.60
2022-10-12T19:34:13.421Z,9.70
2022-10-12T19:36:42.189Z,9.60
2022-10-12T19:39:21.170Z,9.50
2022-10-12T19:41:49.358Z,9.40
2022-10-12T19:44:17.044Z,9.40
2022-10-12T19:46:47.292Z,9.40
2022-10-12T19:49:16.587Z,9.40
2022-10-12T19:51:44.678Z,9.40
2022-10-12T19:54:14.567Z,9.20
2022-10-12T19:56:42.185Z,9.20
2022-10-12T19:59:09.474Z,9.10
2022-10-12T20:01:38.979Z,9.20
2022-10-12T20:04:09.999Z,9.20
2022-10-12T20:06:38.228Z,9.20
2022-10-12T20:09:07.522Z,9.20
2022-10-12T20:11:35.533Z,9.20
2022-10-12T20:14:02.732Z,9.30
2022-10-12T20:16:34.022Z,9.30
2022-10-12T20:19:03.014Z,9.30
2022-10-12T20:21:30.136Z,9.30
2022-10-12T20:23:57.214Z,9.30
2022-10-12T20:26:25.932Z,9.30
2022-10-12T20:28:54.401Z,9.30
2022-10-12T20:31:27.413Z,9.30
2022-10-12T20:33:56.171Z,9.20
2022-10-12T20:36:29.632Z,9.00
2022-10-12T20:39:00.498Z,9.00
2022-10-12T20:41:27.933Z,9.00
2022-10-12T20:44:00.164Z,8.90
2022-10-12T20:46:29.053Z,8.80
2022-10-12T20:49:01.985Z,8.80
2022-10-12T20:51:33.056Z,8.70
2022-10-12T20:54:01.517Z,8.70
2022-10-12T20:56:33.320Z,8.60
2022-10-12T20:59:01.284Z,8.60
2022-10-12T21:01:29.326Z,8.50
2022-10-12T21:03:56.505Z,8.40
2022-10-12T21:06:23.909Z,8.50
2022-10-12T21:08:53.646Z,8.40
2022-10-12T21:11:21.521Z,8.40
2022-10-12T21:13:48.942Z,8.40
2022-10-12T21:16:16.963Z,8.40
2022-10-12T21:18:44.040Z,8.40
2022-10-12T21:21:16.906Z,8.30
2022-10-12T21:24:00.043Z,8.30
2022-10-12T21:26:30.343Z,8.40
2022-10-12T21:28:59.425Z,8.40
2022-10-12T21:31:32.011Z,8.40
2022-10-12T21:34:05.951Z,8.30
2022-10-12T21:36:36.514Z,8.40
2022-10-12T21:39:12.658Z,8.40
2022-10-12T21:41:40.484Z,8.30
2022-10-12T21:44:07.783Z,8.20
2022-10-12T21:46:36.320Z,8.20
2022-10-12T21:49:06.638Z,8.20
2022-10-12T21:51:36.554Z,8.30
2022-10-12T21:54:06.234Z,8.30
2022-10-12T21:56:35.629Z,8.30
2022-10-12T21:59:05.510Z,8.30
2022-10-12T22:01:39.239Z,8.20
2022-10-12T22:04:12.682Z,8.20
2022-10-12T22:06:40.463Z,8.20
2022-10-12T22:09:16.614Z,8.20
2022-10-12T22:11:44.309Z,8.20
2022-10-12T22:14:16.821Z,8.10
2022-10-12T22:16:45.368Z,8.10
2022-10-12T22:19:15.399Z,8.20
2022-10-12T22:21:42.517Z,8.30
2022-10-12T22:24:09.670Z,8.40
2022-10-12T22:26:36.748Z,8.30
2022-10-12T22:29:07.577Z,8.40
2022-10-12T22:31:35.523Z,8.40
2022-10-12T22:34:02.697Z,8.40
2022-10-12T22:36:33.357Z,8.40
2022-10-12T22:39:04.099Z,8.40
2022-10-12T22:41:31.271Z,8.40
2022-10-12T22:43:58.292Z,8.50
2022-10-12T22:46:26.690Z,8.40
2022-10-12T22:48:54.614Z,8.50
2022-10-12T22:51:34.343Z,8.50
2022-10-12T22:54:02.942Z,8.50
2022-10-12T22:56:30.906Z,8.40
2022-10-12T22:59:01.559Z,8.30
2022-10-12T23:01:29.628Z,8.30
2022-10-12T23:03:57.048Z,8.20
2022-10-12T23:06:25.107Z,8.10
2022-10-12T23:08:52.528Z,8.20
2022-10-12T23:11:23.963Z,8.30
2022-10-12T23:13:51.572Z,8.30
2022-10-12T23:16:25.924Z,8.30
2022-10-12T23:18:59.039Z,8.30
2022-10-12T23:21:27.807Z,8.30
2022-10-12T23:23:54.974Z,8.40
2022-10-12T23:26:25.485Z,8.40
2022-10-12T23:28:54.096Z,8.50
2022-10-12T23:31:25.953Z,8.50
2022-10-12T23:34:03.522Z,8.40
2022-10-12T23:36:31.583Z,8.30
2022-10-12T23:39:04.055Z,8.30
2022-10-12T23:41:31.217Z,8.30
2022-10-12T23:43:58.623Z,8.20
2022-10-12T23:46:25.779Z,8.30
2022-10-12T23:48:54.110Z,8.30
2022-10-12T23:51:21.266Z,8.30
2022-10-12T23:53:48.527Z,8.30
2022-10-12T23:56:15.676Z,8.30
2022-10-12T23:58:42.969Z,8.30
